createdAt,value
2023-05-14T00:01:03.267Z,20.82
2023-05-14T00:04:08.292Z,16.65
2023-05-14T00:07:13.215Z,22.42
2023-05-14T00:10:18.937Z,15.32
2023-05-14T00:13:25.797Z,17.85
2023-05-14T00:16:31.020Z,10.53
2023-05-14T00:19:36.760Z,12.15
2023-05-14T00:22:41.811Z,16.07
2023-05-14T00:25:48.018Z,24.43
2023-05-14T00:28:53.460Z,20.65
2023-05-14T00:31:59.800Z,24.47
2023-05-14T00:35:05.299Z,20.75
2023-05-14T00:38:10.845Z,21.42
2023-05-14T00:41:17.053Z,23.02
2023-05-14T00:44:22.087Z,17.92
2023-05-14T00:47:26.705Z,18.20
2023-05-14T00:50:30.860Z,18.62
2023-05-14T00:53:36.434Z,20.90
2023-05-14T00:56:41.292Z,20.43
2023-05-14T00:59:48.133Z,31.48
2023-05-14T01:02:53.747Z,23.20
2023-05-14T01:06:23.312Z,27.62
2023-05-14T01:09:42.352Z,19.55
2023-05-14T01:13:07.328Z,19.50
2023-05-14T01:16:12.937Z,18.45
2023-05-14T01:19:19.202Z,20.02
2023-05-14T01:22:25.543Z,21.07
2023-05-14T01:25:31.225Z,18.12
2023-05-14T01:28:43.874Z,18.42
2023-05-14T01:31:42.017Z,18.77
2023-05-14T01:34:31.457Z,22.42
2023-05-14T01:37:24.028Z,27.90
2023-05-14T01:40:24.812Z,31.60
2023-05-14T01:43:30.764Z,22.07
2023-05-14T01:46:36.494Z,34.95
2023-05-14T01:49:44.386Z,38.35
2023-05-14T01:52:50.149Z,32.23
2023-05-14T01:55:56.746Z,31.68
2023-05-14T01:59:03.178Z,33.53
2023-05-14T02:02:08.612Z,34.58
2023-05-14T02:05:14.194Z,46.90
2023-05-14T02:08:12.972Z,50.10
2023-05-14T02:11:19.682Z,34.83
2023-05-14T02:14:25.593Z,47.62
2023-05-14T02:17:30.838Z,31.62
2023-05-14T02:20:37.208Z,34.88
2023-05-14T02:23:42.851Z,36.25
2023-05-14T02:26:47.929Z,31.23
2023-05-14T02:29:54.749Z,32.58
2023-05-14T02:33:02.094Z,41.55
2023-05-14T02:36:08.386Z,35.70
2023-05-14T02:39:14.958Z,24.47
2023-05-14T02:42:21.590Z,25.77
2023-05-14T02:45:28.517Z,30.92
2023-05-14T02:48:34.989Z,31.50
2023-05-14T02:51:40.801Z,22.93
2023-05-14T02:54:46.678Z,21.82
2023-05-14T02:57:51.806Z,31.40
2023-05-14T03:00:57.013Z,36.65
2023-05-14T03:04:03.088Z,35.70
2023-05-14T03:07:09.154Z,30.80
2023-05-14T03:10:15.252Z,31.25
2023-05-14T03:13:23.816Z,40.65
2023-05-14T03:16:29.513Z,30.32
2023-05-14T03:19:35.170Z,22.80
2023-05-14T03:22:41.872Z,33.80
2023-05-14T03:25:47.557Z,28.92
2023-05-14T03:28:49.090Z,21.97
2023-05-14T03:31:47.759Z,19.02
2023-05-14T03:34:53.621Z,21.85
2023-05-14T03:38:00.162Z,20.55
2023-05-14T03:41:06.662Z,23.27
2023-05-14T03:44:12.600Z,27.45
2023-05-14T03:47:17.419Z,18.52
2023-05-14T03:50:25.036Z,28.30
2023-05-14T03:53:30.743Z,21.90
2023-05-14T03:56:36.979Z,18.98
2023-05-14T03:59:42.794Z,16.50
2023-05-14T04:02:49.338Z,25.08
2023-05-14T04:05:57.108Z,15.35
2023-05-14T04:09:02.570Z,20.92
2023-05-14T04:12:08.420Z,18.37
2023-05-14T04:15:15.398Z,21.50
2023-05-14T04:18:22.220Z,21.75
2023-05-14T04:21:28.762Z,20.15
2023-05-14T04:24:27.375Z,27.30
2023-05-14T04:27:37.037Z,19.13
2023-05-14T04:30:43.027Z,16.00
2023-05-14T04:33:49.396Z,15.30
2023-05-14T04:36:54.612Z,16.25
2023-05-14T04:40:00.797Z,18.65
2023-05-14T04:43:07.116Z,18.32
2023-05-14T04:46:13.336Z,17.67
2023-05-14T04:49:19.742Z,17.60
2023-05-14T04:52:25.540Z,14.63
2023-05-14T04:55:33.098Z,18.12
2023-05-14T04:58:39.643Z,26.52
2023-05-14T05:01:45.918Z,17.12
2023-05-14T05:04:52.044Z,11.75
2023-05-14T05:07:58.570Z,11.40
2023-05-14T05:11:04.498Z,15.43
2023-05-14T05:14:10.699Z,19.75
2023-05-14T05:17:16.091Z,12.85
2023-05-14T05:20:24.189Z,15.05
2023-05-14T05:23:30.662Z,13.72
2023-05-14T05:26:35.830Z,13.78
2023-05-14T05:29:41.681Z,13.75
2023-05-14T05:32:47.129Z,17.82
2023-05-14T05:35:52.576Z,8.20
2023-05-14T05:38:59.270Z,6.72
2023-05-14T05:42:04.760Z,12.60
2023-05-14T05:45:09.970Z,13.22
2023-05-14T05:48:16.374Z,13.40
2023-05-14T05:51:22.184Z,11.95
2023-05-14T05:54:27.521Z,12.75
2023-05-14T05:57:33.494Z,9.03
2023-05-14T06:00:39.550Z,6.60
2023-05-14T06:03:45.303Z,9.83
2023-05-14T06:06:51.094Z,12.88
2023-05-14T06:09:56.488Z,10.28
2023-05-14T06:13:03.006Z,13.22
2023-05-14T06:16:08.918Z,14.85
2023-05-14T06:19:16.514Z,14.58
2023-05-14T06:22:22.874Z,8.55
2023-05-14T06:25:28.865Z,7.47
2023-05-14T06:28:34.658Z,13.55
2023-05-14T06:31:41.276Z,12.25
2023-05-14T06:34:47.403Z,8.65
2023-05-14T06:37:53.494Z,22.10
2023-05-14T06:41:02.829Z,12.40
2023-05-14T06:44:08.775Z,19.45
2023-05-14T06:47:14.906Z,7.80
2023-05-14T06:50:22.145Z,15.15
2023-05-14T06:53:28.534Z,9.45
2023-05-14T06:56:35.050Z,10.05
2023-05-14T06:59:41.872Z,11.20
2023-05-14T07:02:47.974Z,6.92
2023-05-14T07:05:47.511Z,6.87
2023-05-14T07:08:53.283Z,11.08
2023-05-14T07:11:58.946Z,8.90
2023-05-14T07:15:04.411Z,5.62
2023-05-14T07:18:09.625Z,4.80
2023-05-14T07:21:15.251Z,5.75
2023-05-14T07:24:20.834Z,8.65
2023-05-14T07:27:26.243Z,5.92
2023-05-14T07:30:31.956Z,6.90
2023-05-14T07:33:38.664Z,8.15
2023-05-14T07:36:44.438Z,7.70
2023-05-14T07:39:49.988Z,11.60
2023-05-14T07:42:56.797Z,14.33
2023-05-14T07:46:02.782Z,5.15
2023-05-14T07:49:07.812Z,12.50
2023-05-14T07:52:12.880Z,5.53
2023-05-14T07:55:19.448Z,5.75
2023-05-14T07:58:26.153Z,4.17
2023-05-14T08:01:32.062Z,15.10
2023-05-14T08:04:44.905Z,10.88
2023-05-14T08:07:50.298Z,6.42
2023-05-14T08:10:56.469Z,4.50
2023-05-14T08:13:55.791Z,8.73
2023-05-14T08:17:01.999Z,8.58
2023-05-14T08:20:09.470Z,4.78
2023-05-14T08:23:16.010Z,6.72
2023-05-14T08:26:21.345Z,6.90
2023-05-14T08:29:26.859Z,11.50
2023-05-14T08:32:32.280Z,10.23
2023-05-14T08:35:38.410Z,4.50
2023-05-14T08:38:44.086Z,5.92
2023-05-14T08:41:49.865Z,5.92
2023-05-14T08:45:00.918Z,6.47
2023-05-14T08:48:06.688Z,9.90
2023-05-14T08:51:12.273Z,7.30
2023-05-14T08:54:20.502Z,5.40
2023-05-14T08:57:25.531Z,2.98
2023-05-14T09:00:31.450Z,9.75
2023-05-14T09:03:36.574Z,7.87
2023-05-14T09:06:43.074Z,6.08
2023-05-14T09:09:48.721Z,8.78
2023-05-14T09:12:54.530Z,2.98
2023-05-14T09:15:59.580Z,4.47
2023-05-14T09:19:05.145Z,4.40
2023-05-14T09:22:12.575Z,4.45
2023-05-14T09:25:21.720Z,8.23
2023-05-14T09:28:27.796Z,5.70
2023-05-14T09:31:34.012Z,6.95
2023-05-14T09:34:40.761Z,4.08
2023-05-14T09:37:50.156Z,5.37
2023-05-14T09:40:56.127Z,10.78
2023-05-14T09:44:06.577Z,7.55
2023-05-14T09:47:11.714Z,8.70
2023-05-14T09:50:17.280Z,6.37
2023-05-14T09:53:24.126Z,6.22
2023-05-14T09:56:30.938Z,8.63
2023-05-14T09:59:36.964Z,12.82
2023-05-14T10:02:53.030Z,4.70
2023-05-14T10:05:58.059Z,5.87
2023-05-14T10:09:04.187Z,5.03
2023-05-14T10:12:09.532Z,5.65
2023-05-14T10:15:19.560Z,10.05
2023-05-14T10:21:34.616Z,5.53
2023-05-14T10:24:40.243Z,8.85
2023-05-14T10:27:46.405Z,11.93
2023-05-14T10:30:58.001Z,9.25
2023-05-14T10:34:04.174Z,4.58
2023-05-14T10:37:08.765Z,9.23
2023-05-14T10:40:18.673Z,8.20
2023-05-14T10:43:24.464Z,3.33
2023-05-14T10:46:29.740Z,4.25
2023-05-14T10:49:43.029Z,4.55
2023-05-14T10:52:42.600Z,8.60
2023-05-14T10:55:47.821Z,8.23
2023-05-14T10:58:54.414Z,6.60
2023-05-14T11:01:59.980Z,4.28
2023-05-14T11:05:16.206Z,6.05
2023-05-14T11:08:23.956Z,5.30
2023-05-14T11:11:29.014Z,6.95
2023-05-14T11:14:34.931Z,4.83
2023-05-14T11:17:42.099Z,3.77
2023-05-14T11:20:47.536Z,4.83
2023-05-14T11:23:53.409Z,2.15
2023-05-14T11:26:59.152Z,5.22
2023-05-14T11:30:05.276Z,6.22
2023-05-14T11:33:11.078Z,3.95
2023-05-14T11:36:18.102Z,15.25
2023-05-14T11:39:25.863Z,11.50
2023-05-14T11:42:33.078Z,3.85
2023-05-14T11:45:36.597Z,8.13
2023-05-14T11:48:42.502Z,9.40
2023-05-14T11:51:47.197Z,7.80
2023-05-14T11:54:52.865Z,7.10
2023-05-14T11:57:58.940Z,6.45
2023-05-14T12:01:06.969Z,2.83
2023-05-14T12:04:11.731Z,6.30
2023-05-14T12:07:25.764Z,5.75
2023-05-14T12:10:25.573Z,5.90
2023-05-14T12:13:33.251Z,7.08
2023-05-14T12:16:39.419Z,3.80
2023-05-14T12:19:45.770Z,5.35
2023-05-14T12:22:51.268Z,6.05
2023-05-14T12:26:05.605Z,8.15
2023-05-14T12:29:17.216Z,6.60
2023-05-14T12:32:27.088Z,3.67
2023-05-14T12:35:32.420Z,4.97
2023-05-14T12:38:37.999Z,5.33
2023-05-14T12:41:52.080Z,4.92
2023-05-14T12:44:58.797Z,6.05
2023-05-14T12:48:05.001Z,6.03
2023-05-14T12:51:10.949Z,5.35
2023-05-14T12:54:17.955Z,8.48
2023-05-14T12:57:23.468Z,4.58
2023-05-14T13:00:30.205Z,5.65
2023-05-14T13:03:35.979Z,5.17
2023-05-14T13:06:35.262Z,4.10
2023-05-14T13:09:41.178Z,8.13
2023-05-14T13:12:46.868Z,8.33
2023-05-14T13:15:53.678Z,10.70
2023-05-14T13:18:59.226Z,8.70
2023-05-14T13:22:04.859Z,6.70
2023-05-14T13:25:09.977Z,7.60
2023-05-14T13:28:16.420Z,21.15
2023-05-14T13:31:26.153Z,8.60
2023-05-14T13:34:32.409Z,8.53
2023-05-14T13:37:33.316Z,9.40
2023-05-14T13:40:38.902Z,12.05
2023-05-14T13:43:46.623Z,7.30
2023-05-14T13:46:51.620Z,5.62
2023-05-14T13:49:58.130Z,8.03
2023-05-14T13:53:04.274Z,8.13
2023-05-14T13:56:09.857Z,8.95
2023-05-14T13:59:14.847Z,4.85
2023-05-14T14:02:21.640Z,4.17
2023-05-14T14:05:27.737Z,12.70
2023-05-14T14:08:33.367Z,4.78
2023-05-14T14:11:39.210Z,6.08
2023-05-14T14:14:45.014Z,14.38
2023-05-14T14:17:50.187Z,4.10
2023-05-14T14:20:55.480Z,5.62
2023-05-14T14:24:04.239Z,5.90
2023-05-14T14:27:13.985Z,6.53
2023-05-14T14:30:23.945Z,4.40
2023-05-14T14:33:28.949Z,9.08
2023-05-14T14:36:37.043Z,3.62
2023-05-14T14:39:43.631Z,14.93
2023-05-14T14:42:51.238Z,12.63
2023-05-14T14:45:56.125Z,5.97
2023-05-14T14:49:01.618Z,9.88
2023-05-14T14:52:06.409Z,7.15
2023-05-14T14:55:12.115Z,4.97
2023-05-14T14:58:17.744Z,5.33
2023-05-14T15:01:24.154Z,3.65
2023-05-14T15:04:29.793Z,12.03
2023-05-14T15:07:37.190Z,9.18
2023-05-14T15:10:45.118Z,3.95
2023-05-14T15:13:50.309Z,6.17
2023-05-14T15:16:56.042Z,3.62
2023-05-14T15:20:02.649Z,4.37
2023-05-14T15:23:07.605Z,5.70
2023-05-14T15:26:13.167Z,8.83
2023-05-14T15:29:18.768Z,4.95
2023-05-14T15:32:23.454Z,6.20
2023-05-14T15:35:29.334Z,6.72
2023-05-14T15:38:35.542Z,8.15
2023-05-14T15:41:40.739Z,3.30
2023-05-14T15:44:47.354Z,11.63
2023-05-14T15:47:54.059Z,8.55
2023-05-14T15:50:59.548Z,10.03
2023-05-14T15:54:04.807Z,9.85
2023-05-14T15:57:11.458Z,7.40
2023-05-14T16:00:20.672Z,7.37
2023-05-14T16:03:25.573Z,4.72
2023-05-14T16:06:31.256Z,5.25
2023-05-14T16:09:37.139Z,11.38
2023-05-14T16:12:43.081Z,7.95
2023-05-14T16:15:48.333Z,9.23
2023-05-14T16:18:54.514Z,7.85
2023-05-14T16:21:59.550Z,8.93
2023-05-14T16:25:04.880Z,12.95
2023-05-14T16:28:11.131Z,9.48
2023-05-14T16:31:16.488Z,3.27
2023-05-14T16:34:21.717Z,7.78
2023-05-14T16:37:27.897Z,6.37
2023-05-14T16:40:33.667Z,3.90
2023-05-14T16:43:38.809Z,4.33
2023-05-14T16:46:44.437Z,4.47
2023-05-14T16:49:50.450Z,8.88
2023-05-14T16:52:56.022Z,5.55
2023-05-14T16:56:01.501Z,9.68
2023-05-14T16:59:06.909Z,3.95
2023-05-14T17:02:12.820Z,2.50
2023-05-14T17:05:18.722Z,5.08
2023-05-14T17:08:24.731Z,7.62
2023-05-14T17:11:30.340Z,5.33
2023-05-14T17:14:35.938Z,3.80
2023-05-14T17:17:41.632Z,4.08
2023-05-14T17:20:47.388Z,5.45
2023-05-14T17:23:53.549Z,7.70
2023-05-14T17:26:59.188Z,5.17
2023-05-14T17:30:05.479Z,4.00
2023-05-14T17:33:11.793Z,2.25
2023-05-14T17:36:17.414Z,6.97
2023-05-14T17:39:22.693Z,4.42
2023-05-14T17:42:28.460Z,5.83
2023-05-14T17:45:42.705Z,5.08
2023-05-14T17:48:41.173Z,6.75
2023-05-14T17:51:47.374Z,8.45
2023-05-14T17:54:53.429Z,10.45
2023-05-14T17:57:58.745Z,7.03
2023-05-14T18:01:04.044Z,12.47
2023-05-14T18:04:08.776Z,11.45
2023-05-14T18:07:14.017Z,7.85
2023-05-14T18:10:20.436Z,12.70
2023-05-14T18:13:26.063Z,10.03
2023-05-14T18:16:31.679Z,3.67
2023-05-14T18:19:37.656Z,7.37
2023-05-14T18:22:43.163Z,3.65
2023-05-14T18:25:48.849Z,7.90
2023-05-14T18:28:54.832Z,3.70
2023-05-14T18:32:00.496Z,5.15
2023-05-14T18:35:08.397Z,10.28
2023-05-14T18:38:14.912Z,6.95
2023-05-14T18:41:21.703Z,12.68
2023-05-14T18:44:27.152Z,12.30
2023-05-14T18:47:32.178Z,8.18
2023-05-14T18:50:39.371Z,8.43
2023-05-14T18:53:46.269Z,6.83
2023-05-14T18:56:52.397Z,6.20
2023-05-14T18:59:59.051Z,7.37
2023-05-14T19:03:05.694Z,6.00
2023-05-14T19:06:11.138Z,5.95
2023-05-14T19:09:11.002Z,7.15
2023-05-14T19:12:16.608Z,11.85
2023-05-14T19:15:22.730Z,5.47
2023-05-14T19:18:28.683Z,9.23
2023-05-14T19:21:34.540Z,11.88
2023-05-14T19:24:44.013Z,7.87
2023-05-14T19:27:48.985Z,10.95
2023-05-14T19:30:57.950Z,4.75
2023-05-14T19:34:04.789Z,12.70
2023-05-14T19:37:12.184Z,6.72
2023-05-14T19:40:18.467Z,5.83
2023-05-14T19:43:24.451Z,5.72
2023-05-14T19:46:30.903Z,4.08
2023-05-14T19:49:36.901Z,4.80
2023-05-14T19:52:42.197Z,5.08
2023-05-14T19:55:48.940Z,5.20
2023-05-14T19:58:54.689Z,7.25
2023-05-14T20:02:01.668Z,14.23
2023-05-14T20:05:07.785Z,11.97
2023-05-14T20:08:15.027Z,4.95
2023-05-14T20:11:22.149Z,7.12
2023-05-14T20:14:27.711Z,7.80
2023-05-14T20:17:33.077Z,3.98
2023-05-14T20:20:38.466Z,5.90
2023-05-14T20:23:44.067Z,6.85
2023-05-14T20:26:49.070Z,9.65
2023-05-14T20:29:56.828Z,7.83
2023-05-14T20:33:02.668Z,7.47
2023-05-14T20:36:10.370Z,8.70
2023-05-14T20:39:18.158Z,3.72
2023-05-14T20:42:24.036Z,10.80
2023-05-14T20:45:23.076Z,8.18
2023-05-14T20:48:11.650Z,5.53
2023-05-14T20:51:03.380Z,4.78
2023-05-14T20:53:49.436Z,3.80
2023-05-14T20:56:43.721Z,4.28
2023-05-14T20:59:49.081Z,12.60
2023-05-14T21:02:56.228Z,4.70
2023-05-14T21:06:03.510Z,9.85
2023-05-14T21:09:08.351Z,9.73
2023-05-14T21:12:14.363Z,8.78
2023-05-14T21:15:20.899Z,7.42
2023-05-14T21:18:27.298Z,7.80
2023-05-14T21:21:32.761Z,4.87
2023-05-14T21:24:38.738Z,5.83
2023-05-14T21:27:44.625Z,5.87
2023-05-14T21:30:49.967Z,11.75
2023-05-14T21:33:55.752Z,6.90
2023-05-14T21:37:01.658Z,8.55
2023-05-14T21:40:07.260Z,13.35
2023-05-14T21:43:12.221Z,5.50
2023-05-14T21:46:17.758Z,13.22
2023-05-14T21:49:23.112Z,7.92
2023-05-14T21:52:27.716Z,5.05
2023-05-14T21:55:33.860Z,5.87
2023-05-14T21:58:41.401Z,7.45
2023-05-14T22:02:05.498Z,8.40
2023-05-14T22:04:55.193Z,12.45
2023-05-14T22:08:01.114Z,5.85
2023-05-14T22:11:06.877Z,5.50
2023-05-14T22:14:12.819Z,6.55
2023-05-14T22:17:18.674Z,5.53
2023-05-14T22:20:24.144Z,6.05
2023-05-14T22:23:28.959Z,8.13
2023-05-14T22:26:34.040Z,5.37
2023-05-14T22:29:39.983Z,7.28
2023-05-14T22:32:45.810Z,12.68
2023-05-14T22:35:50.846Z,8.45
2023-05-14T22:38:55.933Z,5.67
2023-05-14T22:42:01.508Z,7.42
2023-05-14T22:45:06.177Z,4.60
2023-05-14T22:48:12.235Z,6.45
2023-05-14T22:51:17.693Z,4.45
2023-05-14T22:54:23.687Z,11.53
2023-05-14T22:57:30.105Z,4.22
2023-05-14T23:00:35.536Z,7.42
2023-05-14T23:03:42.121Z,5.60
2023-05-14T23:06:41.039Z,7.05
2023-05-14T23:09:33.845Z,9.43
2023-05-14T23:12:38.979Z,9.18
2023-05-14T23:15:45.424Z,5.42
2023-05-14T23:18:51.331Z,6.00
2023-05-14T23:21:58.282Z,5.95
2023-05-14T23:25:04.121Z,9.70
2023-05-14T23:28:11.417Z,7.60
2023-05-14T23:31:17.159Z,8.20
2023-05-14T23:34:22.672Z,7.47
2023-05-14T23:37:28.748Z,12.07
2023-05-14T23:40:34.413Z,13.53
2023-05-14T23:43:40.776Z,4.55
2023-05-14T23:46:47.426Z,9.05
2023-05-14T23:49:52.437Z,12.07
2023-05-14T23:52:59.219Z,13.60
2023-05-14T23:56:04.549Z,8.40
2023-05-14T23:59:10.651Z,9.80
